sensor_id;sensor_type;location;lat;lon;timestamp;P1;durP1;ratioP1;P2;durP2;ratioP2
35891;SDS011;21993;42.672;23.296;2023-03-03T00:01:26;3.30;;;3.00;;
35891;SDS011;21993;42.672;23.296;2023-03-03T00:03:51;4.10;;;3.00;;
35891;SDS011;21993;42.672;23.296;2023-03-03T00:06:18;4.40;;;3.40;;
35891;SDS011;21993;42.672;23.296;2023-03-03T00:08:44;4.37;;;3.57;;
35891;SDS011;21993;42.672;23.296;2023-03-03T00:11:09;5.33;;;3.80;;
35891;SDS011;21993;42.672;23.296;2023-03-03T00:13:41;6.13;;;4.07;;
35891;SDS011;21993;42.672;23.296;2023-03-03T00:18:40;4.60;;;3.77;;
35891;SDS011;21993;42.672;23.296;2023-03-03T00:21:18;7.17;;;4.10;;
35891;SDS011;21993;42.672;23.296;2023-03-03T00:23:44;6.33;;;4.00;;
35891;SDS011;21993;42.672;23.296;2023-03-03T00:26:53;7.07;;;4.37;;
35891;SDS011;21993;42.672;23.296;2023-03-03T00:29:00;4.17;;;3.77;;
35891;SDS011;21993;42.672;23.296;2023-03-03T00:31:34;5.60;;;4.13;;
35891;SDS011;21993;42.672;23.296;2023-03-03T00:34:43;4.97;;;3.77;;
35891;SDS011;21993;42.672;23.296;2023-03-03T00:36:51;6.00;;;3.60;;
35891;SDS011;21993;42.672;23.296;2023-03-03T00:42:12;4.40;;;4.00;;
35891;SDS011;21993;42.672;23.296;2023-03-03T00:45:17;7.10;;;4.43;;
35891;SDS011;21993;42.672;23.296;2023-03-03T00:47:48;6.37;;;4.67;;
35891;SDS011;21993;42.672;23.296;2023-03-03T00:50:20;6.47;;;4.80;;
35891;SDS011;21993;42.672;23.296;2023-03-03T00:55:29;6.90;;;5.17;;
35891;SDS011;21993;42.672;23.296;2023-03-03T00:57:55;5.93;;;4.67;;
35891;SDS011;21993;42.672;23.296;2023-03-03T01:00:21;6.87;;;5.53;;
35891;SDS011;21993;42.672;23.296;2023-03-03T01:02:46;6.20;;;4.80;;
35891;SDS011;21993;42.672;23.296;2023-03-03T01:05:13;5.87;;;5.27;;
35891;SDS011;21993;42.672;23.296;2023-03-03T01:07:40;6.87;;;4.43;;
35891;SDS011;21993;42.672;23.296;2023-03-03T01:10:05;9.70;;;5.53;;
35891;SDS011;21993;42.672;23.296;2023-03-03T01:12:31;6.57;;;4.93;;
35891;SDS011;21993;42.672;23.296;2023-03-03T01:14:56;7.73;;;5.47;;
35891;SDS011;21993;42.672;23.296;2023-03-03T01:17:22;5.33;;;4.50;;
35891;SDS011;21993;42.672;23.296;2023-03-03T01:19:47;7.17;;;5.43;;
35891;SDS011;21993;42.672;23.296;2023-03-03T01:22:13;6.23;;;5.10;;
35891;SDS011;21993;42.672;23.296;2023-03-03T01:24:39;6.27;;;5.20;;
35891;SDS011;21993;42.672;23.296;2023-03-03T01:27:04;5.20;;;4.50;;
35891;SDS011;21993;42.672;23.296;2023-03-03T01:29:29;5.33;;;4.53;;
35891;SDS011;21993;42.672;23.296;2023-03-03T01:31:55;5.50;;;4.83;;
35891;SDS011;21993;42.672;23.296;2023-03-03T01:34:20;5.63;;;4.67;;
35891;SDS011;21993;42.672;23.296;2023-03-03T01:36:46;5.37;;;4.27;;
35891;SDS011;21993;42.672;23.296;2023-03-03T01:39:11;6.63;;;4.50;;
35891;SDS011;21993;42.672;23.296;2023-03-03T01:41:37;6.07;;;5.10;;
35891;SDS011;21993;42.672;23.296;2023-03-03T01:44:03;8.63;;;5.30;;
35891;SDS011;21993;42.672;23.296;2023-03-03T01:49:21;6.37;;;4.50;;
35891;SDS011;21993;42.672;23.296;2023-03-03T01:52:40;5.20;;;4.70;;
35891;SDS011;21993;42.672;23.296;2023-03-03T01:55:16;5.30;;;4.67;;
35891;SDS011;21993;42.672;23.296;2023-03-03T01:57:54;7.87;;;5.20;;
35891;SDS011;21993;42.672;23.296;2023-03-03T02:00:23;7.60;;;4.70;;
35891;SDS011;21993;42.672;23.296;2023-03-03T02:02:48;7.30;;;4.97;;
35891;SDS011;21993;42.672;23.296;2023-03-03T02:05:15;7.80;;;5.10;;
35891;SDS011;21993;42.672;23.296;2023-03-03T02:07:41;7.23;;;5.53;;
35891;SDS011;21993;42.672;23.296;2023-03-03T02:10:10;8.13;;;4.80;;
35891;SDS011;21993;42.672;23.296;2023-03-03T02:12:50;8.27;;;5.03;;
35891;SDS011;21993;42.672;23.296;2023-03-03T02:15:22;7.83;;;5.03;;
35891;SDS011;21993;42.672;23.296;2023-03-03T02:18:21;7.47;;;4.97;;
35891;SDS011;21993;42.672;23.296;2023-03-03T02:23:51;6.60;;;4.80;;
35891;SDS011;21993;42.672;23.296;2023-03-03T02:26:25;4.77;;;3.90;;
35891;SDS011;21993;42.672;23.296;2023-03-03T02:28:55;6.80;;;5.03;;
35891;SDS011;21993;42.672;23.296;2023-03-03T02:31:22;6.90;;;5.10;;
35891;SDS011;21993;42.672;23.296;2023-03-03T02:33:50;5.53;;;4.67;;
35891;SDS011;21993;42.672;23.296;2023-03-03T02:36:36;11.80;;;7.63;;
35891;SDS011;21993;42.672;23.296;2023-03-03T02:41:38;6.33;;;4.87;;
35891;SDS011;21993;42.672;23.296;2023-03-03T02:44:14;7.97;;;5.10;;
35891;SDS011;21993;42.672;23.296;2023-03-03T02:46:42;7.90;;;4.60;;
35891;SDS011;21993;42.672;23.296;2023-03-03T02:49:11;6.57;;;4.80;;
35891;SDS011;21993;42.672;23.296;2023-03-03T02:51:39;6.87;;;5.33;;
35891;SDS011;21993;42.672;23.296;2023-03-03T02:54:04;6.33;;;5.20;;
35891;SDS011;21993;42.672;23.296;2023-03-03T02:56:31;8.93;;;5.50;;
35891;SDS011;21993;42.672;23.296;2023-03-03T02:58:57;7.37;;;5.30;;
35891;SDS011;21993;42.672;23.296;2023-03-03T03:01:23;8.73;;;5.20;;
35891;SDS011;21993;42.672;23.296;2023-03-03T03:03:48;6.80;;;5.17;;
35891;SDS011;21993;42.672;23.296;2023-03-03T03:06:14;7.97;;;5.20;;
35891;SDS011;21993;42.672;23.296;2023-03-03T03:08:39;6.83;;;4.73;;
35891;SDS011;21993;42.672;23.296;2023-03-03T03:11:05;6.67;;;5.50;;
35891;SDS011;21993;42.672;23.296;2023-03-03T03:13:31;7.43;;;5.13;;
35891;SDS011;21993;42.672;23.296;2023-03-03T03:15:57;6.50;;;4.93;;
35891;SDS011;21993;42.672;23.296;2023-03-03T03:18:23;7.33;;;5.07;;
35891;SDS011;21993;42.672;23.296;2023-03-03T03:20:49;8.13;;;5.93;;
35891;SDS011;21993;42.672;23.296;2023-03-03T03:23:14;6.83;;;5.63;;
35891;SDS011;21993;42.672;23.296;2023-03-03T03:25:41;10.50;;;6.13;;
35891;SDS011;21993;42.672;23.296;2023-03-03T03:28:10;7.27;;;5.60;;
35891;SDS011;21993;42.672;23.296;2023-03-03T03:30:36;7.80;;;5.40;;
35891;SDS011;21993;42.672;23.296;2023-03-03T03:33:03;8.60;;;6.37;;
35891;SDS011;21993;42.672;23.296;2023-03-03T03:35:29;7.90;;;5.90;;
35891;SDS011;21993;42.672;23.296;2023-03-03T03:37:54;8.93;;;6.90;;
35891;SDS011;21993;42.672;23.296;2023-03-03T03:40:20;7.13;;;5.43;;
35891;SDS011;21993;42.672;23.296;2023-03-03T03:42:45;8.10;;;6.60;;
35891;SDS011;21993;42.672;23.296;2023-03-03T03:45:11;8.57;;;6.57;;
35891;SDS011;21993;42.672;23.296;2023-03-03T03:47:40;9.03;;;5.60;;
35891;SDS011;21993;42.672;23.296;2023-03-03T03:50:06;9.80;;;6.47;;
35891;SDS011;21993;42.672;23.296;2023-03-03T03:52:33;9.43;;;6.57;;
35891;SDS011;21993;42.672;23.296;2023-03-03T03:54:58;9.37;;;6.77;;
35891;SDS011;21993;42.672;23.296;2023-03-03T03:57:24;10.23;;;6.43;;
35891;SDS011;21993;42.672;23.296;2023-03-03T03:59:49;10.17;;;6.93;;
35891;SDS011;21993;42.672;23.296;2023-03-03T04:02:15;8.60;;;5.93;;
35891;SDS011;21993;42.672;23.296;2023-03-03T04:04:40;8.50;;;6.73;;
35891;SDS011;21993;42.672;23.296;2023-03-03T04:07:05;9.07;;;6.63;;
35891;SDS011;21993;42.672;23.296;2023-03-03T04:09:31;11.33;;;7.30;;
35891;SDS011;21993;42.672;23.296;2023-03-03T04:11:56;11.23;;;6.63;;
35891;SDS011;21993;42.672;23.296;2023-03-03T04:14:22;9.43;;;6.87;;
35891;SDS011;21993;42.672;23.296;2023-03-03T04:16:47;9.43;;;6.63;;
35891;SDS011;21993;42.672;23.296;2023-03-03T04:19:12;10.90;;;6.80;;
35891;SDS011;21993;42.672;23.296;2023-03-03T04:21:38;11.20;;;7.13;;
35891;SDS011;21993;42.672;23.296;2023-03-03T04:24:03;12.30;;;7.83;;
35891;SDS011;21993;42.672;23.296;2023-03-03T04:26:29;23.67;;;11.87;;
35891;SDS011;21993;42.672;23.296;2023-03-03T04:28:55;13.40;;;8.80;;
35891;SDS011;21993;42.672;23.296;2023-03-03T04:31:22;15.10;;;8.97;;
35891;SDS011;21993;42.672;23.296;2023-03-03T04:33:49;10.80;;;7.57;;
35891;SDS011;21993;42.672;23.296;2023-03-03T04:36:15;9.93;;;7.57;;
35891;SDS011;21993;42.672;23.296;2023-03-03T04:38:40;10.40;;;6.83;;
35891;SDS011;21993;42.672;23.296;2023-03-03T04:41:06;9.73;;;6.97;;
35891;SDS011;21993;42.672;23.296;2023-03-03T04:43:31;11.50;;;7.90;;
35891;SDS011;21993;42.672;23.296;2023-03-03T04:45:57;9.70;;;6.63;;
35891;SDS011;21993;42.672;23.296;2023-03-03T04:48:22;12.77;;;8.03;;
35891;SDS011;21993;42.672;23.296;2023-03-03T04:50:47;9.80;;;7.20;;
35891;SDS011;21993;42.672;23.296;2023-03-03T04:53:13;14.23;;;8.27;;
35891;SDS011;21993;42.672;23.296;2023-03-03T04:55:39;11.40;;;7.33;;
35891;SDS011;21993;42.672;23.296;2023-03-03T04:58:05;13.30;;;7.83;;
35891;SDS011;21993;42.672;23.296;2023-03-03T05:00:30;13.30;;;7.73;;
35891;SDS011;21993;42.672;23.296;2023-03-03T05:02:56;11.17;;;7.50;;
35891;SDS011;21993;42.672;23.296;2023-03-03T05:05:22;11.13;;;7.53;;
35891;SDS011;21993;42.672;23.296;2023-03-03T05:07:47;10.97;;;7.60;;
35891;SDS011;21993;42.672;23.296;2023-03-03T05:10:13;14.30;;;8.60;;
35891;SDS011;21993;42.672;23.296;2023-03-03T05:12:38;13.97;;;9.30;;
35891;SDS011;21993;42.672;23.296;2023-03-03T05:15:04;11.13;;;8.60;;
35891;SDS011;21993;42.672;23.296;2023-03-03T05:17:30;19.70;;;10.57;;
35891;SDS011;21993;42.672;23.296;2023-03-03T05:19:55;19.83;;;12.17;;
35891;SDS011;21993;42.672;23.296;2023-03-03T05:22:21;14.70;;;9.63;;
35891;SDS011;21993;42.672;23.296;2023-03-03T05:24:47;16.00;;;9.40;;
35891;SDS011;21993;42.672;23.296;2023-03-03T05:27:13;14.57;;;9.50;;
35891;SDS011;21993;42.672;23.296;2023-03-03T05:29:39;14.10;;;9.97;;
35891;SDS011;21993;42.672;23.296;2023-03-03T05:32:05;16.40;;;9.33;;
35891;SDS011;21993;42.672;23.296;2023-03-03T05:34:30;13.13;;;9.03;;
35891;SDS011;21993;42.672;23.296;2023-03-03T05:36:56;13.07;;;9.27;;
35891;SDS011;21993;42.672;23.296;2023-03-03T05:39:21;13.10;;;8.67;;
35891;SDS011;21993;42.672;23.296;2023-03-03T05:41:47;13.03;;;7.93;;
35891;SDS011;21993;42.672;23.296;2023-03-03T05:44:13;11.73;;;8.37;;
35891;SDS011;21993;42.672;23.296;2023-03-03T05:46:38;15.43;;;8.50;;
35891;SDS011;21993;42.672;23.296;2023-03-03T05:49:04;11.90;;;8.17;;
35891;SDS011;21993;42.672;23.296;2023-03-03T05:51:29;13.50;;;8.00;;
35891;SDS011;21993;42.672;23.296;2023-03-03T05:53:55;15.13;;;8.57;;
35891;SDS011;21993;42.672;23.296;2023-03-03T05:56:20;11.63;;;7.73;;
35891;SDS011;21993;42.672;23.296;2023-03-03T05:58:45;11.90;;;8.20;;
35891;SDS011;21993;42.672;23.296;2023-03-03T06:01:11;12.50;;;8.33;;
35891;SDS011;21993;42.672;23.296;2023-03-03T06:03:36;17.23;;;8.83;;
35891;SDS011;21993;42.672;23.296;2023-03-03T06:06:02;13.80;;;8.33;;
35891;SDS011;21993;42.672;23.296;2023-03-03T06:08:27;13.30;;;8.17;;
35891;SDS011;21993;42.672;23.296;2023-03-03T06:10:53;14.17;;;8.50;;
35891;SDS011;21993;42.672;23.296;2023-03-03T06:13:19;12.73;;;8.63;;
35891;SDS011;21993;42.672;23.296;2023-03-03T06:15:44;11.53;;;8.40;;
35891;SDS011;21993;42.672;23.296;2023-03-03T06:18:10;15.17;;;9.10;;
35891;SDS011;21993;42.672;23.296;2023-03-03T06:20:35;13.87;;;8.77;;
35891;SDS011;21993;42.672;23.296;2023-03-03T06:23:02;13.70;;;8.70;;
35891;SDS011;21993;42.672;23.296;2023-03-03T06:25:28;13.20;;;9.30;;
35891;SDS011;21993;42.672;23.296;2023-03-03T06:27:53;16.50;;;10.17;;
35891;SDS011;21993;42.672;23.296;2023-03-03T06:30:19;14.93;;;9.70;;
35891;SDS011;21993;42.672;23.296;2023-03-03T06:32:45;14.27;;;9.60;;
35891;SDS011;21993;42.672;23.296;2023-03-03T06:35:10;19.00;;;10.70;;
35891;SDS011;21993;42.672;23.296;2023-03-03T06:37:36;17.47;;;12.60;;
35891;SDS011;21993;42.672;23.296;2023-03-03T06:40:02;18.13;;;11.20;;
35891;SDS011;21993;42.672;23.296;2023-03-03T06:42:30;19.87;;;10.33;;
35891;SDS011;21993;42.672;23.296;2023-03-03T06:44:56;17.23;;;10.23;;
35891;SDS011;21993;42.672;23.296;2023-03-03T06:47:21;15.00;;;10.80;;
35891;SDS011;21993;42.672;23.296;2023-03-03T06:49:48;16.27;;;10.60;;
35891;SDS011;21993;42.672;23.296;2023-03-03T06:52:14;17.47;;;10.57;;
35891;SDS011;21993;42.672;23.296;2023-03-03T06:54:44;17.73;;;10.63;;
35891;SDS011;21993;42.672;23.296;2023-03-03T06:57:14;16.43;;;11.20;;
35891;SDS011;21993;42.672;23.296;2023-03-03T06:59:48;14.03;;;9.33;;
35891;SDS011;21993;42.672;23.296;2023-03-03T07:02:17;18.00;;;11.03;;
35891;SDS011;21993;42.672;23.296;2023-03-03T07:04:43;18.83;;;12.03;;
35891;SDS011;21993;42.672;23.296;2023-03-03T07:07:18;17.53;;;10.53;;
35891;SDS011;21993;42.672;23.296;2023-03-03T07:09:46;16.67;;;10.27;;
35891;SDS011;21993;42.672;23.296;2023-03-03T07:12:20;16.37;;;10.20;;
35891;SDS011;21993;42.672;23.296;2023-03-03T07:14:52;16.07;;;9.13;;
35891;SDS011;21993;42.672;23.296;2023-03-03T07:17:24;13.97;;;8.93;;
35891;SDS011;21993;42.672;23.296;2023-03-03T07:19:50;12.07;;;8.37;;
35891;SDS011;21993;42.672;23.296;2023-03-03T07:22:17;12.67;;;8.23;;
35891;SDS011;21993;42.672;23.296;2023-03-03T07:24:45;15.87;;;8.57;;
35891;SDS011;21993;42.672;23.296;2023-03-03T07:27:23;11.93;;;7.57;;
35891;SDS011;21993;42.672;23.296;2023-03-03T07:29:51;12.90;;;8.47;;
35891;SDS011;21993;42.672;23.296;2023-03-03T07:32:28;9.90;;;7.23;;
35891;SDS011;21993;42.672;23.296;2023-03-03T07:35:07;12.27;;;7.27;;
35891;SDS011;21993;42.672;23.296;2023-03-03T07:37:42;11.70;;;7.63;;
35891;SDS011;21993;42.672;23.296;2023-03-03T07:42:46;10.93;;;7.17;;
35891;SDS011;21993;42.672;23.296;2023-03-03T07:45:28;16.50;;;8.00;;
35891;SDS011;21993;42.672;23.296;2023-03-03T07:48:41;15.60;;;9.77;;
35891;SDS011;21993;42.672;23.296;2023-03-03T07:50:47;20.70;;;13.53;;
35891;SDS011;21993;42.672;23.296;2023-03-03T07:53:18;15.00;;;9.73;;
35891;SDS011;21993;42.672;23.296;2023-03-03T07:55:50;11.23;;;8.33;;
35891;SDS011;21993;42.672;23.296;2023-03-03T07:58:19;9.87;;;8.07;;
35891;SDS011;21993;42.672;23.296;2023-03-03T08:03:49;14.43;;;9.67;;
35891;SDS011;21993;42.672;23.296;2023-03-03T08:11:34;14.50;;;10.27;;
35891;SDS011;21993;42.672;23.296;2023-03-03T08:13:59;19.87;;;11.37;;
35891;SDS011;21993;42.672;23.296;2023-03-03T08:19:04;17.80;;;11.17;;
35891;SDS011;21993;42.672;23.296;2023-03-03T08:21:30;15.57;;;9.90;;
35891;SDS011;21993;42.672;23.296;2023-03-03T08:23:56;15.70;;;9.73;;
35891;SDS011;21993;42.672;23.296;2023-03-03T08:26:22;11.60;;;8.17;;
35891;SDS011;21993;42.672;23.296;2023-03-03T08:28:49;11.90;;;8.70;;
35891;SDS011;21993;42.672;23.296;2023-03-03T08:31:15;12.13;;;8.73;;
35891;SDS011;21993;42.672;23.296;2023-03-03T08:33:43;12.17;;;8.40;;
35891;SDS011;21993;42.672;23.296;2023-03-03T08:36:10;14.17;;;9.57;;
35891;SDS011;21993;42.672;23.296;2023-03-03T08:38:35;15.50;;;10.27;;
35891;SDS011;21993;42.672;23.296;2023-03-03T08:41:01;17.47;;;11.07;;
35891;SDS011;21993;42.672;23.296;2023-03-03T08:43:27;16.83;;;10.20;;
35891;SDS011;21993;42.672;23.296;2023-03-03T08:45:55;19.07;;;10.33;;
35891;SDS011;21993;42.672;23.296;2023-03-03T08:48:23;16.87;;;11.53;;
35891;SDS011;21993;42.672;23.296;2023-03-03T08:50:49;16.17;;;10.83;;
35891;SDS011;21993;42.672;23.296;2023-03-03T08:53:15;17.63;;;11.33;;
35891;SDS011;21993;42.672;23.296;2023-03-03T08:55:42;16.43;;;11.27;;
35891;SDS011;21993;42.672;23.296;2023-03-03T08:58:08;17.47;;;9.87;;
35891;SDS011;21993;42.672;23.296;2023-03-03T09:00:33;15.20;;;9.80;;
35891;SDS011;21993;42.672;23.296;2023-03-03T09:02:59;15.93;;;10.33;;
35891;SDS011;21993;42.672;23.296;2023-03-03T09:05:25;17.57;;;11.27;;
35891;SDS011;21993;42.672;23.296;2023-03-03T09:07:51;17.97;;;11.37;;
35891;SDS011;21993;42.672;23.296;2023-03-03T09:10:18;17.20;;;11.07;;
35891;SDS011;21993;42.672;23.296;2023-03-03T09:12:51;20.40;;;12.13;;
35891;SDS011;21993;42.672;23.296;2023-03-03T09:15:22;17.73;;;10.20;;
35891;SDS011;21993;42.672;23.296;2023-03-03T09:17:50;17.87;;;10.70;;
35891;SDS011;21993;42.672;23.296;2023-03-03T09:25:53;18.80;;;11.60;;
35891;SDS011;21993;42.672;23.296;2023-03-03T09:28:30;17.70;;;11.83;;
35891;SDS011;21993;42.672;23.296;2023-03-03T09:30:57;17.33;;;11.10;;
35891;SDS011;21993;42.672;23.296;2023-03-03T09:33:27;18.43;;;12.63;;
35891;SDS011;21993;42.672;23.296;2023-03-03T09:38:30;18.77;;;12.03;;
35891;SDS011;21993;42.672;23.296;2023-03-03T09:41:05;18.13;;;11.43;;
35891;SDS011;21993;42.672;23.296;2023-03-03T09:54:52;17.43;;;11.37;;
35891;SDS011;21993;42.672;23.296;2023-03-03T10:14:27;13.57;;;9.33;;
35891;SDS011;21993;42.672;23.296;2023-03-03T10:20:24;14.23;;;8.90;;
35891;SDS011;21993;42.672;23.296;2023-03-03T10:22:55;13.23;;;9.40;;
35891;SDS011;21993;42.672;23.296;2023-03-03T10:25:42;14.10;;;9.27;;
35891;SDS011;21993;42.672;23.296;2023-03-03T10:31:18;16.00;;;11.53;;
35891;SDS011;21993;42.672;23.296;2023-03-03T10:36:48;16.63;;;10.57;;
35891;SDS011;21993;42.672;23.296;2023-03-03T10:42:19;15.60;;;10.50;;
35891;SDS011;21993;42.672;23.296;2023-03-03T10:53:20;14.83;;;10.47;;
35891;SDS011;21993;42.672;23.296;2023-03-03T11:07:08;17.93;;;11.67;;
35891;SDS011;21993;42.672;23.296;2023-03-03T11:15:06;17.43;;;12.53;;
35891;SDS011;21993;42.672;23.296;2023-03-03T11:26:16;21.33;;;15.17;;
35891;SDS011;21993;42.672;23.296;2023-03-03T11:29:05;22.60;;;14.17;;
35891;SDS011;21993;42.672;23.296;2023-03-03T11:37:05;29.43;;;19.80;;
35891;SDS011;21993;42.672;23.296;2023-03-03T11:39:34;32.23;;;19.80;;
35891;SDS011;21993;42.672;23.296;2023-03-03T11:42:05;31.33;;;19.60;;
35891;SDS011;21993;42.672;23.296;2023-03-03T11:44:58;29.60;;;20.03;;
35891;SDS011;21993;42.672;23.296;2023-03-03T11:50:29;25.57;;;15.33;;
35891;SDS011;21993;42.672;23.296;2023-03-03T11:55:47;27.00;;;16.40;;
35891;SDS011;21993;42.672;23.296;2023-03-03T11:58:24;25.03;;;16.73;;
35891;SDS011;21993;42.672;23.296;2023-03-03T12:00:56;27.13;;;17.73;;
35891;SDS011;21993;42.672;23.296;2023-03-03T12:06:11;28.57;;;18.57;;
35891;SDS011;21993;42.672;23.296;2023-03-03T12:11:46;26.90;;;18.97;;
35891;SDS011;21993;42.672;23.296;2023-03-03T12:17:14;25.57;;;16.97;;
35891;SDS011;21993;42.672;23.296;2023-03-03T12:22:41;24.87;;;15.70;;
35891;SDS011;21993;42.672;23.296;2023-03-03T12:54:01;15.20;;;10.90;;
35891;SDS011;21993;42.672;23.296;2023-03-03T12:56:37;15.20;;;11.40;;
35891;SDS011;21993;42.672;23.296;2023-03-03T13:06:55;13.53;;;9.10;;
35891;SDS011;21993;42.672;23.296;2023-03-03T13:20:58;11.50;;;8.63;;
35891;SDS011;21993;42.672;23.296;2023-03-03T13:26:10;14.17;;;9.03;;
35891;SDS011;21993;42.672;23.296;2023-03-03T13:31:21;16.07;;;9.63;;
35891;SDS011;21993;42.672;23.296;2023-03-03T13:33:55;14.77;;;9.87;;
35891;SDS011;21993;42.672;23.296;2023-03-03T13:36:27;13.33;;;9.13;;
35891;SDS011;21993;42.672;23.296;2023-03-03T13:39:00;13.17;;;8.03;;
35891;SDS011;21993;42.672;23.296;2023-03-03T13:44:19;15.33;;;8.63;;
35891;SDS011;21993;42.672;23.296;2023-03-03T13:47:02;11.63;;;7.63;;
35891;SDS011;21993;42.672;23.296;2023-03-03T13:52:20;11.10;;;8.77;;
35891;SDS011;21993;42.672;23.296;2023-03-03T13:54:51;13.60;;;9.00;;
35891;SDS011;21993;42.672;23.296;2023-03-03T14:03:07;16.03;;;10.77;;
35891;SDS011;21993;42.672;23.296;2023-03-03T14:05:35;12.73;;;9.10;;
35891;SDS011;21993;42.672;23.296;2023-03-03T14:11:13;11.37;;;9.17;;
35891;SDS011;21993;42.672;23.296;2023-03-03T14:16:21;11.27;;;8.23;;
35891;SDS011;21993;42.672;23.296;2023-03-03T14:19:13;11.63;;;7.70;;
35891;SDS011;21993;42.672;23.296;2023-03-03T14:21:45;12.23;;;9.23;;
35891;SDS011;21993;42.672;23.296;2023-03-03T14:24:21;10.00;;;8.10;;
35891;SDS011;21993;42.672;23.296;2023-03-03T14:26:58;12.27;;;8.90;;
35891;SDS011;21993;42.672;23.296;2023-03-03T14:31:59;14.20;;;9.20;;
35891;SDS011;21993;42.672;23.296;2023-03-03T14:36:56;7.87;;;6.50;;
35891;SDS011;21993;42.672;23.296;2023-03-03T14:42:00;9.70;;;7.20;;
35891;SDS011;21993;42.672;23.296;2023-03-03T14:44:31;8.93;;;6.90;;
35891;SDS011;21993;42.672;23.296;2023-03-03T14:49:35;8.63;;;7.20;;
35891;SDS011;21993;42.672;23.296;2023-03-03T14:54:40;8.93;;;6.80;;
35891;SDS011;21993;42.672;23.296;2023-03-03T15:07:50;11.27;;;7.53;;
35891;SDS011;21993;42.672;23.296;2023-03-03T15:15:51;12.83;;;8.40;;
35891;SDS011;21993;42.672;23.296;2023-03-03T15:18:17;13.27;;;8.70;;
35891;SDS011;21993;42.672;23.296;2023-03-03T15:31:30;14.30;;;10.47;;
35891;SDS011;21993;42.672;23.296;2023-03-03T15:52:55;13.40;;;9.60;;
35891;SDS011;21993;42.672;23.296;2023-03-03T15:55:41;11.57;;;8.67;;
35891;SDS011;21993;42.672;23.296;2023-03-03T16:03:55;10.83;;;8.33;;
35891;SDS011;21993;42.672;23.296;2023-03-03T16:17:16;13.73;;;10.27;;
35891;SDS011;21993;42.672;23.296;2023-03-03T16:22:39;20.10;;;12.53;;
35891;SDS011;21993;42.672;23.296;2023-03-03T16:28:25;18.27;;;12.67;;
35891;SDS011;21993;42.672;23.296;2023-03-03T16:33:37;17.83;;;12.40;;
35891;SDS011;21993;42.672;23.296;2023-03-03T16:38:50;20.83;;;12.17;;
35891;SDS011;21993;42.672;23.296;2023-03-03T16:50:16;20.20;;;14.50;;
35891;SDS011;21993;42.672;23.296;2023-03-03T17:01:46;19.53;;;14.87;;
35891;SDS011;21993;42.672;23.296;2023-03-03T17:04:52;18.53;;;12.40;;
35891;SDS011;21993;42.672;23.296;2023-03-03T17:15:52;17.73;;;11.17;;
35891;SDS011;21993;42.672;23.296;2023-03-03T17:26:58;13.20;;;9.47;;
35891;SDS011;21993;42.672;23.296;2023-03-03T17:29:44;16.30;;;9.63;;
35891;SDS011;21993;42.672;23.296;2023-03-03T17:32:22;14.80;;;11.57;;
35891;SDS011;21993;42.672;23.296;2023-03-03T17:40:34;14.33;;;9.97;;
35891;SDS011;21993;42.672;23.296;2023-03-03T17:45:46;16.67;;;10.50;;
35891;SDS011;21993;42.672;23.296;2023-03-03T17:51:11;16.93;;;11.13;;
35891;SDS011;21993;42.672;23.296;2023-03-03T18:02:35;17.03;;;10.90;;
35891;SDS011;21993;42.672;23.296;2023-03-03T18:05:28;17.57;;;11.17;;
35891;SDS011;21993;42.672;23.296;2023-03-03T18:22:21;14.93;;;9.60;;
35891;SDS011;21993;42.672;23.296;2023-03-03T18:28:13;12.83;;;9.03;;
35891;SDS011;21993;42.672;23.296;2023-03-03T18:33:56;10.63;;;7.93;;
35891;SDS011;21993;42.672;23.296;2023-03-03T18:38:52;11.23;;;7.90;;
35891;SDS011;21993;42.672;23.296;2023-03-03T18:41:21;12.13;;;8.40;;
35891;SDS011;21993;42.672;23.296;2023-03-03T18:44:23;8.17;;;6.67;;
35891;SDS011;21993;42.672;23.296;2023-03-03T18:46:53;9.40;;;6.87;;
35891;SDS011;21993;42.672;23.296;2023-03-03T18:49:46;8.97;;;6.50;;
35891;SDS011;21993;42.672;23.296;2023-03-03T18:52:26;9.40;;;5.83;;
35891;SDS011;21993;42.672;23.296;2023-03-03T18:57:34;9.03;;;5.87;;
35891;SDS011;21993;42.672;23.296;2023-03-03T19:02:34;7.57;;;5.93;;
35891;SDS011;21993;42.672;23.296;2023-03-03T19:10:58;6.50;;;5.53;;
35891;SDS011;21993;42.672;23.296;2023-03-03T19:16:00;7.97;;;6.70;;
35891;SDS011;21993;42.672;23.296;2023-03-03T19:18:27;9.27;;;7.17;;
35891;SDS011;21993;42.672;23.296;2023-03-03T19:21:29;10.03;;;6.77;;
35891;SDS011;21993;42.672;23.296;2023-03-03T19:24:05;12.83;;;8.30;;
35891;SDS011;21993;42.672;23.296;2023-03-03T19:26:57;11.77;;;7.70;;
35891;SDS011;21993;42.672;23.296;2023-03-03T19:46:17;12.30;;;8.60;;
35891;SDS011;21993;42.672;23.296;2023-03-03T19:48:55;11.37;;;9.13;;
35891;SDS011;21993;42.672;23.296;2023-03-03T19:57:19;15.80;;;9.77;;
35891;SDS011;21993;42.672;23.296;2023-03-03T20:00:00;13.70;;;8.87;;
35891;SDS011;21993;42.672;23.296;2023-03-03T20:05:19;28.53;;;20.33;;
35891;SDS011;21993;42.672;23.296;2023-03-03T20:07:54;24.40;;;18.30;;
35891;SDS011;21993;42.672;23.296;2023-03-03T20:15:52;21.30;;;14.63;;
35891;SDS011;21993;42.672;23.296;2023-03-03T20:18:33;16.33;;;11.57;;
35891;SDS011;21993;42.672;23.296;2023-03-03T20:21:33;17.80;;;12.37;;
35891;SDS011;21993;42.672;23.296;2023-03-03T20:32:27;13.70;;;10.03;;
35891;SDS011;21993;42.672;23.296;2023-03-03T20:37:54;14.50;;;10.40;;
35891;SDS011;21993;42.672;23.296;2023-03-03T20:54:09;14.47;;;9.87;;
35891;SDS011;21993;42.672;23.296;2023-03-03T20:59:35;14.00;;;9.30;;
35891;SDS011;21993;42.672;23.296;2023-03-03T21:02:22;12.60;;;8.17;;
35891;SDS011;21993;42.672;23.296;2023-03-03T21:05:13;12.83;;;8.60;;
35891;SDS011;21993;42.672;23.296;2023-03-03T21:07:48;12.40;;;9.00;;
35891;SDS011;21993;42.672;23.296;2023-03-03T21:10:17;14.37;;;9.07;;
35891;SDS011;21993;42.672;23.296;2023-03-03T21:12:49;13.77;;;8.87;;
35891;SDS011;21993;42.672;23.296;2023-03-03T21:15:28;15.53;;;9.17;;
35891;SDS011;21993;42.672;23.296;2023-03-03T21:17:56;14.13;;;9.63;;
35891;SDS011;21993;42.672;23.296;2023-03-03T21:22:53;13.40;;;8.80;;
35891;SDS011;21993;42.672;23.296;2023-03-03T21:30:57;11.47;;;8.23;;
35891;SDS011;21993;42.672;23.296;2023-03-03T21:36:22;11.63;;;8.70;;
35891;SDS011;21993;42.672;23.296;2023-03-03T21:38:57;11.07;;;8.40;;
35891;SDS011;21993;42.672;23.296;2023-03-03T21:41:22;11.57;;;8.23;;
35891;SDS011;21993;42.672;23.296;2023-03-03T21:43:49;13.33;;;9.17;;
35891;SDS011;21993;42.672;23.296;2023-03-03T21:46:20;14.73;;;9.50;;
35891;SDS011;21993;42.672;23.296;2023-03-03T21:48:47;14.03;;;9.83;;
35891;SDS011;21993;42.672;23.296;2023-03-03T21:51:13;12.53;;;9.23;;
35891;SDS011;21993;42.672;23.296;2023-03-03T21:53:40;11.97;;;8.63;;
35891;SDS011;21993;42.672;23.296;2023-03-03T21:56:10;14.13;;;9.47;;
35891;SDS011;21993;42.672;23.296;2023-03-03T21:58:37;10.80;;;8.97;;
35891;SDS011;21993;42.672;23.296;2023-03-03T22:01:04;17.93;;;10.40;;
35891;SDS011;21993;42.672;23.296;2023-03-03T22:03:30;15.87;;;10.50;;
35891;SDS011;21993;42.672;23.296;2023-03-03T22:05:56;18.30;;;11.63;;
35891;SDS011;21993;42.672;23.296;2023-03-03T22:08:22;18.27;;;11.87;;
35891;SDS011;21993;42.672;23.296;2023-03-03T22:10:48;18.43;;;12.00;;
35891;SDS011;21993;42.672;23.296;2023-03-03T22:13:17;18.13;;;12.43;;